sensor_id;sensor_type;location;lat;lon;timestamp;pressure;altitude;pressure_sealevel;temperature;humidity
24858;BME280;12935;50.782;6.074;2023-05-10T00:01:54;98776.41;;;12.62;100.00
24858;BME280;12935;50.782;6.074;2023-05-10T00:04:20;98779.66;;;12.57;100.00
24858;BME280;12935;50.782;6.074;2023-05-10T00:06:45;98789.69;;;12.63;100.00
24858;BME280;12935;50.782;6.074;2023-05-10T00:09:11;98787.34;;;12.62;100.00
24858;BME280;12935;50.782;6.074;2023-05-10T00:11:36;98779.56;;;12.60;100.00
24858;BME280;12935;50.782;6.074;2023-05-10T00:14:01;98774.31;;;12.50;100.00
24858;BME280;12935;50.782;6.074;2023-05-10T00:16:27;98779.78;;;12.50;100.00
24858;BME280;12935;50.782;6.074;2023-05-10T00:18:52;98782.75;;;12.59;100.00
24858;BME280;12935;50.782;6.074;2023-05-10T00:21:17;98781.69;;;12.53;100.00
24858;BME280;12935;50.782;6.074;2023-05-10T00:23:43;98781.84;;;12.46;100.00
24858;BME280;12935;50.782;6.074;2023-05-10T00:26:08;98775.16;;;12.47;100.00
24858;BME280;12935;50.782;6.074;2023-05-10T00:28:33;98772.84;;;12.45;100.00
24858;BME280;12935;50.782;6.074;2023-05-10T00:30:59;98772.63;;;12.56;100.00
24858;BME280;12935;50.782;6.074;2023-05-10T00:33:24;98780.75;;;12.59;100.00
24858;BME280;12935;50.782;6.074;2023-05-10T00:35:49;98777.34;;;12.55;100.00
24858;BME280;12935;50.782;6.074;2023-05-10T00:38:16;98773.25;;;12.44;100.00
24858;BME280;12935;50.782;6.074;2023-05-10T00:40:41;98777.41;;;12.52;100.00
24858;BME280;12935;50.782;6.074;2023-05-10T00:43:06;98771.00;;;12.58;100.00
24858;BME280;12935;50.782;6.074;2023-05-10T00:45:32;98773.41;;;12.56;100.00
24858;BME280;12935;50.782;6.074;2023-05-10T00:48:00;98779.91;;;12.62;100.00
24858;BME280;12935;50.782;6.074;2023-05-10T00:50:26;98781.97;;;12.58;100.00
24858;BME280;12935;50.782;6.074;2023-05-10T00:52:51;98782.47;;;12.53;100.00
24858;BME280;12935;50.782;6.074;2023-05-10T00:55:18;98778.25;;;12.49;100.00
24858;BME280;12935;50.782;6.074;2023-05-10T00:57:43;98777.34;;;12.55;100.00
24858;BME280;12935;50.782;6.074;2023-05-10T01:00:09;98778.66;;;12.47;100.00
24858;BME280;12935;50.782;6.074;2023-05-10T01:02:34;98783.47;;;12.43;100.00
24858;BME280;12935;50.782;6.074;2023-05-10T01:05:02;98782.59;;;12.46;100.00
24858;BME280;12935;50.782;6.074;2023-05-10T01:07:28;98781.47;;;12.63;100.00
24858;BME280;12935;50.782;6.074;2023-05-10T01:09:54;98781.19;;;12.58;100.00
24858;BME280;12935;50.782;6.074;2023-05-10T01:12:19;98777.69;;;12.57;100.00
24858;BME280;12935;50.782;6.074;2023-05-10T01:14:46;98777.94;;;12.63;100.00
24858;BME280;12935;50.782;6.074;2023-05-10T01:17:11;98780.69;;;12.63;100.00
24858;BME280;12935;50.782;6.074;2023-05-10T01:19:37;98775.38;;;12.56;100.00
24858;BME280;12935;50.782;6.074;2023-05-10T01:31:22;98776.69;;;12.48;100.00
24858;BME280;12935;50.782;6.074;2023-05-10T01:33:56;98775.72;;;12.58;100.00
24858;BME280;12935;50.782;6.074;2023-05-10T01:36:29;98775.09;;;12.50;100.00
24858;BME280;12935;50.782;6.074;2023-05-10T01:39:04;98783.38;;;12.47;100.00
24858;BME280;12935;50.782;6.074;2023-05-10T01:41:54;98778.31;;;12.45;100.00
24858;BME280;12935;50.782;6.074;2023-05-10T01:44:35;98777.22;;;12.43;100.00
24858;BME280;12935;50.782;6.074;2023-05-10T01:47:10;98786.28;;;12.40;100.00
24858;BME280;12935;50.782;6.074;2023-05-10T01:49:47;98786.03;;;12.50;100.00
24858;BME280;12935;50.782;6.074;2023-05-10T01:52:17;98786.69;;;12.58;100.00
24858;BME280;12935;50.782;6.074;2023-05-10T01:54:51;98784.72;;;12.58;100.00
24858;BME280;12935;50.782;6.074;2023-05-10T01:57:20;98781.75;;;12.49;100.00
24858;BME280;12935;50.782;6.074;2023-05-10T01:59:49;98790.19;;;12.58;100.00
24858;BME280;12935;50.782;6.074;2023-05-10T02:02:17;98794.59;;;12.72;100.00
24858;BME280;12935;50.782;6.074;2023-05-10T02:04:44;98783.00;;;12.64;100.00
24858;BME280;12935;50.782;6.074;2023-05-10T02:07:11;98792.78;;;12.65;100.00
24858;BME280;12935;50.782;6.074;2023-05-10T02:09:37;98794.44;;;12.59;100.00
24858;BME280;12935;50.782;6.074;2023-05-10T02:12:04;98801.72;;;12.50;100.00
24858;BME280;12935;50.782;6.074;2023-05-10T02:14:34;98797.53;;;12.61;100.00
24858;BME280;12935;50.782;6.074;2023-05-10T02:17:02;98806.78;;;12.51;100.00
24858;BME280;12935;50.782;6.074;2023-05-10T02:19:30;98802.97;;;12.65;100.00
24858;BME280;12935;50.782;6.074;2023-05-10T02:21:57;98805.28;;;12.67;100.00
24858;BME280;12935;50.782;6.074;2023-05-10T02:24:24;98807.63;;;12.48;100.00
24858;BME280;12935;50.782;6.074;2023-05-10T02:26:51;98816.34;;;12.43;100.00
24858;BME280;12935;50.782;6.074;2023-05-10T02:29:19;98799.63;;;12.38;100.00
24858;BME280;12935;50.782;6.074;2023-05-10T02:31:45;98806.38;;;12.33;100.00
24858;BME280;12935;50.782;6.074;2023-05-10T02:34:11;98815.28;;;12.37;100.00
24858;BME280;12935;50.782;6.074;2023-05-10T02:36:39;98815.41;;;12.30;100.00
24858;BME280;12935;50.782;6.074;2023-05-10T02:39:06;98823.44;;;12.41;100.00
24858;BME280;12935;50.782;6.074;2023-05-10T02:41:35;98829.28;;;12.43;100.00
24858;BME280;12935;50.782;6.074;2023-05-10T02:44:02;98827.84;;;12.35;100.00
24858;BME280;12935;50.782;6.074;2023-05-10T02:46:28;98823.63;;;12.30;100.00
24858;BME280;12935;50.782;6.074;2023-05-10T02:48:54;98825.81;;;12.39;100.00
24858;BME280;12935;50.782;6.074;2023-05-10T02:51:23;98828.84;;;12.44;100.00
24858;BME280;12935;50.782;6.074;2023-05-10T02:53:50;98825.19;;;12.31;100.00
24858;BME280;12935;50.782;6.074;2023-05-10T02:56:40;98830.75;;;12.27;100.00
24858;BME280;12935;50.782;6.074;2023-05-10T02:59:07;98826.59;;;12.39;100.00
24858;BME280;12935;50.782;6.074;2023-05-10T03:01:32;98821.13;;;12.39;100.00
24858;BME280;12935;50.782;6.074;2023-05-10T03:03:58;98828.56;;;12.39;100.00
24858;BME280;12935;50.782;6.074;2023-05-10T03:06:23;98817.13;;;12.24;100.00
24858;BME280;12935;50.782;6.074;2023-05-10T03:08:49;98825.81;;;12.19;100.00
24858;BME280;12935;50.782;6.074;2023-05-10T03:17:17;98820.13;;;12.29;100.00
24858;BME280;12935;50.782;6.074;2023-05-10T03:19:55;98821.91;;;12.40;100.00
24858;BME280;12935;50.782;6.074;2023-05-10T03:22:25;98819.03;;;12.27;100.00
24858;BME280;12935;50.782;6.074;2023-05-10T03:24:53;98821.81;;;12.23;100.00
24858;BME280;12935;50.782;6.074;2023-05-10T03:27:22;98823.16;;;12.35;100.00
24858;BME280;12935;50.782;6.074;2023-05-10T03:29:48;98826.53;;;12.23;100.00
24858;BME280;12935;50.782;6.074;2023-05-10T03:32:14;98828.22;;;12.37;100.00
24858;BME280;12935;50.782;6.074;2023-05-10T03:34:42;98823.44;;;12.41;100.00
24858;BME280;12935;50.782;6.074;2023-05-10T03:37:10;98830.31;;;12.29;100.00
24858;BME280;12935;50.782;6.074;2023-05-10T03:39:35;98831.06;;;12.29;100.00
24858;BME280;12935;50.782;6.074;2023-05-10T03:42:00;98838.53;;;12.29;100.00
24858;BME280;12935;50.782;6.074;2023-05-10T03:44:26;98840.28;;;12.19;100.00
24858;BME280;12935;50.782;6.074;2023-05-10T03:46:51;98830.31;;;12.29;100.00
24858;BME280;12935;50.782;6.074;2023-05-10T03:49:17;98836.72;;;12.42;100.00
24858;BME280;12935;50.782;6.074;2023-05-10T03:51:43;98832.78;;;12.23;100.00
24858;BME280;12935;50.782;6.074;2023-05-10T03:54:08;98845.28;;;12.24;100.00
24858;BME280;12935;50.782;6.074;2023-05-10T03:56:33;98851.63;;;12.41;100.00
24858;BME280;12935;50.782;6.074;2023-05-10T03:58:58;98844.72;;;12.53;100.00
24858;BME280;12935;50.782;6.074;2023-05-10T04:01:24;98840.38;;;12.55;100.00
24858;BME280;12935;50.782;6.074;2023-05-10T04:03:49;98837.91;;;12.41;100.00
24858;BME280;12935;50.782;6.074;2023-05-10T04:06:14;98845.75;;;12.19;100.00
24858;BME280;12935;50.782;6.074;2023-05-10T04:08:40;98848.09;;;12.21;100.00
24858;BME280;12935;50.782;6.074;2023-05-10T04:11:09;98844.78;;;12.29;100.00
24858;BME280;12935;50.782;6.074;2023-05-10T04:13:35;98845.06;;;12.35;100.00
24858;BME280;12935;50.782;6.074;2023-05-10T04:16:00;98850.69;;;12.48;100.00
24858;BME280;12935;50.782;6.074;2023-05-10T04:18:26;98842.81;;;12.50;100.00
24858;BME280;12935;50.782;6.074;2023-05-10T04:20:51;98843.16;;;12.32;100.00
24858;BME280;12935;50.782;6.074;2023-05-10T04:23:17;98844.59;;;12.40;100.00
24858;BME280;12935;50.782;6.074;2023-05-10T04:25:42;98847.88;;;12.51;100.00
24858;BME280;12935;50.782;6.074;2023-05-10T04:28:07;98844.50;;;12.63;100.00
24858;BME280;12935;50.782;6.074;2023-05-10T04:30:33;98855.25;;;12.74;100.00
24858;BME280;12935;50.782;6.074;2023-05-10T04:32:58;98848.22;;;12.53;100.00
24858;BME280;12935;50.782;6.074;2023-05-10T04:35:24;98853.56;;;12.41;100.00
24858;BME280;12935;50.782;6.074;2023-05-10T04:37:49;98850.97;;;12.34;100.00
24858;BME280;12935;50.782;6.074;2023-05-10T04:40:15;98850.47;;;12.19;100.00
24858;BME280;12935;50.782;6.074;2023-05-10T04:42:40;98848.22;;;12.34;100.00
24858;BME280;12935;50.782;6.074;2023-05-10T04:45:09;98856.22;;;12.44;100.00
24858;BME280;12935;50.782;6.074;2023-05-10T04:47:35;98864.59;;;12.57;100.00
24858;BME280;12935;50.782;6.074;2023-05-10T04:50:02;98859.97;;;12.54;100.00
24858;BME280;12935;50.782;6.074;2023-05-10T04:52:27;98866.84;;;12.42;100.00
24858;BME280;12935;50.782;6.074;2023-05-10T04:54:52;98860.31;;;12.36;100.00
24858;BME280;12935;50.782;6.074;2023-05-10T04:57:18;98861.38;;;12.42;100.00
24858;BME280;12935;50.782;6.074;2023-05-10T04:59:43;98864.19;;;12.58;100.00
24858;BME280;12935;50.782;6.074;2023-05-10T05:02:08;98860.25;;;12.40;100.00
24858;BME280;12935;50.782;6.074;2023-05-10T05:04:34;98864.75;;;12.50;100.00
24858;BME280;12935;50.782;6.074;2023-05-10T05:06:59;98861.72;;;12.64;100.00
24858;BME280;12935;50.782;6.074;2023-05-10T05:09:24;98867.91;;;12.68;100.00
24858;BME280;12935;50.782;6.074;2023-05-10T05:11:50;98857.78;;;12.45;100.00
24858;BME280;12935;50.782;6.074;2023-05-10T05:14:15;98866.72;;;12.49;100.00
24858;BME280;12935;50.782;6.074;2023-05-10T05:16:40;98864.97;;;12.39;100.00
24858;BME280;12935;50.782;6.074;2023-05-10T05:19:06;98867.13;;;12.48;100.00
24858;BME280;12935;50.782;6.074;2023-05-10T05:21:31;98870.38;;;12.43;100.00
24858;BME280;12935;50.782;6.074;2023-05-10T05:23:57;98875.16;;;12.58;100.00
24858;BME280;12935;50.782;6.074;2023-05-10T05:26:22;98872.13;;;12.53;100.00
24858;BME280;12935;50.782;6.074;2023-05-10T05:28:48;98871.84;;;12.47;100.00
24858;BME280;12935;50.782;6.074;2023-05-10T05:31:14;98880.81;;;12.48;100.00
24858;BME280;12935;50.782;6.074;2023-05-10T05:33:40;98880.91;;;12.64;100.00
24858;BME280;12935;50.782;6.074;2023-05-10T05:36:06;98882.03;;;12.67;100.00
24858;BME280;12935;50.782;6.074;2023-05-10T05:38:31;98880.69;;;12.75;100.00
24858;BME280;12935;50.782;6.074;2023-05-10T05:40:57;98891.50;;;12.82;100.00
24858;BME280;12935;50.782;6.074;2023-05-10T05:43:23;98894.09;;;12.89;100.00
24858;BME280;12935;50.782;6.074;2023-05-10T05:45:48;98895.50;;;12.97;100.00
24858;BME280;12935;50.782;6.074;2023-05-10T05:48:13;98892.59;;;13.04;100.00
24858;BME280;12935;50.782;6.074;2023-05-10T05:50:39;98895.19;;;13.11;100.00
24858;BME280;12935;50.782;6.074;2023-05-10T05:53:04;98900.25;;;13.13;100.00
24858;BME280;12935;50.782;6.074;2023-05-10T05:55:29;98894.81;;;13.09;100.00
24858;BME280;12935;50.782;6.074;2023-05-10T05:57:57;98909.91;;;13.21;100.00
24858;BME280;12935;50.782;6.074;2023-05-10T06:00:22;98905.69;;;12.96;100.00
24858;BME280;12935;50.782;6.074;2023-05-10T06:02:47;98904.25;;;13.08;100.00
24858;BME280;12935;50.782;6.074;2023-05-10T06:05:13;98899.34;;;13.19;100.00
24858;BME280;12935;50.782;6.074;2023-05-10T06:07:40;98903.31;;;13.18;100.00
24858;BME280;12935;50.782;6.074;2023-05-10T06:10:07;98902.56;;;13.14;100.00
24858;BME280;12935;50.782;6.074;2023-05-10T06:12:33;98910.13;;;12.90;100.00
24858;BME280;12935;50.782;6.074;2023-05-10T06:14:58;98914.19;;;13.02;100.00
24858;BME280;12935;50.782;6.074;2023-05-10T06:17:24;98920.94;;;13.17;100.00
24858;BME280;12935;50.782;6.074;2023-05-10T06:19:50;98917.84;;;12.95;100.00
24858;BME280;12935;50.782;6.074;2023-05-10T06:22:15;98921.53;;;12.89;100.00
24858;BME280;12935;50.782;6.074;2023-05-10T06:24:41;98916.09;;;12.65;100.00
24858;BME280;12935;50.782;6.074;2023-05-10T06:27:06;98924.53;;;12.55;100.00
24858;BME280;12935;50.782;6.074;2023-05-10T06:29:32;98927.06;;;12.46;100.00
24858;BME280;12935;50.782;6.074;2023-05-10T06:31:57;98927.06;;;12.46;100.00
24858;BME280;12935;50.782;6.074;2023-05-10T06:34:23;98932.53;;;12.46;100.00
24858;BME280;12935;50.782;6.074;2023-05-10T06:36:48;98930.97;;;12.45;100.00
24858;BME280;12935;50.782;6.074;2023-05-10T06:39:14;98927.97;;;12.39;100.00
24858;BME280;12935;50.782;6.074;2023-05-10T06:41:39;98930.41;;;12.34;100.00
24858;BME280;12935;50.782;6.074;2023-05-10T06:44:04;98943.50;;;12.46;100.00
24858;BME280;12935;50.782;6.074;2023-05-10T06:46:30;98945.13;;;12.43;100.00
24858;BME280;12935;50.782;6.074;2023-05-10T06:48:55;98936.91;;;12.43;100.00
24858;BME280;12935;50.782;6.074;2023-05-10T06:51:20;98939.00;;;12.12;100.00
24858;BME280;12935;50.782;6.074;2023-05-10T06:53:46;98942.94;;;12.11;100.00
24858;BME280;12935;50.782;6.074;2023-05-10T06:56:12;98947.28;;;12.09;100.00
24858;BME280;12935;50.782;6.074;2023-05-10T06:58:37;98956.63;;;12.11;100.00
24858;BME280;12935;50.782;6.074;2023-05-10T07:01:04;98958.94;;;12.13;100.00
24858;BME280;12935;50.782;6.074;2023-05-10T07:03:30;98951.31;;;12.01;100.00
24858;BME280;12935;50.782;6.074;2023-05-10T07:06:00;98961.81;;;12.06;100.00
24858;BME280;12935;50.782;6.074;2023-05-10T07:08:26;98958.81;;;11.97;100.00
24858;BME280;12935;50.782;6.074;2023-05-10T07:10:52;98971.44;;;11.90;100.00
24858;BME280;12935;50.782;6.074;2023-05-10T07:13:17;98964.66;;;11.99;100.00
24858;BME280;12935;50.782;6.074;2023-05-10T07:15:42;98967.88;;;11.93;100.00
24858;BME280;12935;50.782;6.074;2023-05-10T07:18:07;98977.81;;;12.07;100.00
24858;BME280;12935;50.782;6.074;2023-05-10T07:20:33;98973.00;;;11.91;100.00
24858;BME280;12935;50.782;6.074;2023-05-10T07:22:58;98985.13;;;11.90;100.00
24858;BME280;12935;50.782;6.074;2023-05-10T07:25:23;98980.47;;;11.87;100.00
24858;BME280;12935;50.782;6.074;2023-05-10T07:27:49;98982.03;;;11.88;100.00
24858;BME280;12935;50.782;6.074;2023-05-10T07:30:14;98984.72;;;11.92;100.00
24858;BME280;12935;50.782;6.074;2023-05-10T07:32:40;98976.09;;;11.93;100.00
24858;BME280;12935;50.782;6.074;2023-05-10T07:35:07;98978.97;;;11.83;100.00
24858;BME280;12935;50.782;6.074;2023-05-10T07:37:32;98975.06;;;11.84;100.00
24858;BME280;12935;50.782;6.074;2023-05-10T07:39:57;98984.44;;;11.83;100.00
24858;BME280;12935;50.782;6.074;2023-05-10T07:42:23;98974.41;;;11.76;100.00
24858;BME280;12935;50.782;6.074;2023-05-10T07:44:48;98979.81;;;11.80;100.00
24858;BME280;12935;50.782;6.074;2023-05-10T07:47:13;98981.78;;;11.79;100.00
24858;BME280;12935;50.782;6.074;2023-05-10T07:49:39;98992.25;;;11.84;100.00
24858;BME280;12935;50.782;6.074;2023-05-10T07:52:04;98993.06;;;11.81;100.00
24858;BME280;12935;50.782;6.074;2023-05-10T07:54:29;98985.50;;;11.92;100.00
24858;BME280;12935;50.782;6.074;2023-05-10T07:56:55;98990.78;;;12.03;100.00
24858;BME280;12935;50.782;6.074;2023-05-10T07:59:20;98997.91;;;11.97;100.00
24858;BME280;12935;50.782;6.074;2023-05-10T08:01:45;98988.41;;;12.05;100.00
24858;BME280;12935;50.782;6.074;2023-05-10T08:04:11;98996.69;;;12.02;100.00
24858;BME280;12935;50.782;6.074;2023-05-10T08:06:36;99003.53;;;12.13;100.00
24858;BME280;12935;50.782;6.074;2023-05-10T08:09:02;99005.72;;;11.99;100.00
24858;BME280;12935;50.782;6.074;2023-05-10T08:11:27;99012.09;;;11.92;100.00
24858;BME280;12935;50.782;6.074;2023-05-10T08:13:53;99015.97;;;11.94;100.00
24858;BME280;12935;50.782;6.074;2023-05-10T08:16:19;99014.72;;;11.99;100.00
24858;BME280;12935;50.782;6.074;2023-05-10T08:18:45;99016.63;;;12.02;100.00
24858;BME280;12935;50.782;6.074;2023-05-10T08:21:12;99026.47;;;12.23;100.00
24858;BME280;12935;50.782;6.074;2023-05-10T08:23:37;99021.78;;;12.23;100.00
24858;BME280;12935;50.782;6.074;2023-05-10T08:26:02;99023.31;;;12.24;100.00
24858;BME280;12935;50.782;6.074;2023-05-10T08:28:28;99032.34;;;12.45;100.00
24858;BME280;12935;50.782;6.074;2023-05-10T08:30:53;99034.97;;;12.75;100.00
24858;BME280;12935;50.782;6.074;2023-05-10T08:33:19;99039.75;;;12.91;100.00
24858;BME280;12935;50.782;6.074;2023-05-10T08:35:45;99038.47;;;12.76;100.00
24858;BME280;12935;50.782;6.074;2023-05-10T08:38:10;99048.50;;;12.62;100.00
24858;BME280;12935;50.782;6.074;2023-05-10T08:40:41;99049.78;;;12.58;100.00
24858;BME280;12935;50.782;6.074;2023-05-10T08:43:09;99058.47;;;12.53;100.00
24858;BME280;12935;50.782;6.074;2023-05-10T08:45:39;99055.13;;;12.65;100.00
24858;BME280;12935;50.782;6.074;2023-05-10T08:48:06;99068.19;;;12.57;100.00
24858;BME280;12935;50.782;6.074;2023-05-10T08:50:32;99073.94;;;12.63;100.00
24858;BME280;12935;50.782;6.074;2023-05-10T08:53:00;99074.34;;;12.61;100.00
24858;BME280;12935;50.782;6.074;2023-05-10T08:55:27;99074.91;;;12.53;100.00
24858;BME280;12935;50.782;6.074;2023-05-10T08:57:53;99073.31;;;12.55;100.00
24858;BME280;12935;50.782;6.074;2023-05-10T09:00:19;99067.63;;;12.66;100.00
24858;BME280;12935;50.782;6.074;2023-05-10T09:02:45;99076.16;;;12.72;100.00
24858;BME280;12935;50.782;6.074;2023-05-10T09:05:13;99079.38;;;12.67;100.00
24858;BME280;12935;50.782;6.074;2023-05-10T09:07:41;99085.16;;;12.72;100.00
24858;BME280;12935;50.782;6.074;2023-05-10T09:10:06;99076.78;;;13.03;100.00
24858;BME280;12935;50.782;6.074;2023-05-10T09:12:33;99080.06;;;13.17;100.00
24858;BME280;12935;50.782;6.074;2023-05-10T09:14:59;99085.22;;;13.12;100.00
24858;BME280;12935;50.782;6.074;2023-05-10T09:17:25;99085.97;;;13.16;100.00
24858;BME280;12935;50.782;6.074;2023-05-10T09:20:01;99086.41;;;13.34;100.00
24858;BME280;12935;50.782;6.074;2023-05-10T09:22:27;99090.06;;;13.67;100.00
24858;BME280;12935;50.782;6.074;2023-05-10T09:25:13;99099.16;;;14.00;100.00
24858;BME280;12935;50.782;6.074;2023-05-10T09:27:39;99096.47;;;13.96;100.00
24858;BME280;12935;50.782;6.074;2023-05-10T09:30:06;99097.13;;;13.84;100.00
24858;BME280;12935;50.782;6.074;2023-05-10T09:32:43;99099.91;;;13.45;100.00
24858;BME280;12935;50.782;6.074;2023-05-10T09:35:10;99101.66;;;13.35;100.00
24858;BME280;12935;50.782;6.074;2023-05-10T09:37:35;99097.88;;;13.49;100.00
24858;BME280;12935;50.782;6.074;2023-05-10T09:40:04;99101.88;;;13.44;100.00
24858;BME280;12935;50.782;6.074;2023-05-10T09:42:29;99095.47;;;13.08;100.00
24858;BME280;12935;50.782;6.074;2023-05-10T09:45:00;99109.47;;;13.17;100.00
24858;BME280;12935;50.782;6.074;2023-05-10T09:47:25;99105.66;;;13.30;100.00
24858;BME280;12935;50.782;6.074;2023-05-10T09:49:52;99111.06;;;13.54;100.00
24858;BME280;12935;50.782;6.074;2023-05-10T09:52:18;99112.50;;;13.82;100.00
24858;BME280;12935;50.782;6.074;2023-05-10T09:54:53;99116.84;;;13.59;100.00
24858;BME280;12935;50.782;6.074;2023-05-10T09:57:23;99106.72;;;13.76;100.00
24858;BME280;12935;50.782;6.074;2023-05-10T09:59:49;99105.16;;;14.11;100.00
24858;BME280;12935;50.782;6.074;2023-05-10T10:02:16;99113.34;;;14.15;100.00
24858;BME280;12935;50.782;6.074;2023-05-10T10:04:41;99112.56;;;14.14;100.00
24858;BME280;12935;50.782;6.074;2023-05-10T10:07:07;99120.44;;;14.48;100.00
24858;BME280;12935;50.782;6.074;2023-05-10T10:09:33;99115.53;;;14.72;100.00
24858;BME280;12935;50.782;6.074;2023-05-10T10:12:02;99118.38;;;14.68;100.00
24858;BME280;12935;50.782;6.074;2023-05-10T10:14:29;99112.88;;;14.68;100.00
24858;BME280;12935;50.782;6.074;2023-05-10T10:16:55;99112.03;;;14.55;100.00
24858;BME280;12935;50.782;6.074;2023-05-10T10:19:21;99110.41;;;14.58;100.00
24858;BME280;12935;50.782;6.074;2023-05-10T10:21:50;99108.84;;;14.41;100.00
24858;BME280;12935;50.782;6.074;2023-05-10T10:24:16;99107.59;;;14.25;100.00
24858;BME280;12935;50.782;6.074;2023-05-10T10:26:42;99107.00;;;14.34;100.00
24858;BME280;12935;50.782;6.074;2023-05-10T10:29:33;99117.09;;;14.41;100.00
24858;BME280;12935;50.782;6.074;2023-05-10T10:34:46;99114.72;;;14.23;100.00
24858;BME280;12935;50.782;6.074;2023-05-10T10:37:11;99118.97;;;14.08;100.00
24858;BME280;12935;50.782;6.074;2023-05-10T10:39:36;99119.09;;;14.36;100.00
24858;BME280;12935;50.782;6.074;2023-05-10T10:42:03;99117.81;;;14.25;100.00
24858;BME280;12935;50.782;6.074;2023-05-10T10:49:27;99118.06;;;14.14;100.00
24858;BME280;12935;50.782;6.074;2023-05-10T10:52:15;99117.88;;;14.21;100.00
24858;BME280;12935;50.782;6.074;2023-05-10T10:57:19;99112.34;;;14.05;100.00
24858;BME280;12935;50.782;6.074;2023-05-10T10:59:47;99125.03;;;14.35;100.00
24858;BME280;12935;50.782;6.074;2023-05-10T11:02:42;99122.38;;;14.31;100.00
24858;BME280;12935;50.782;6.074;2023-05-10T11:07:57;99121.47;;;14.18;100.00
24858;BME280;12935;50.782;6.074;2023-05-10T11:10:23;99138.31;;;14.56;100.00
24858;BME280;12935;50.782;6.074;2023-05-10T11:13:00;99131.00;;;14.82;100.00
24858;BME280;12935;50.782;6.074;2023-05-10T11:15:32;99129.63;;;14.90;100.00
24858;BME280;12935;50.782;6.074;2023-05-10T11:17:58;99130.00;;;15.21;100.00
24858;BME280;12935;50.782;6.074;2023-05-10T11:20:27;99129.13;;;15.53;100.00
24858;BME280;12935;50.782;6.074;2023-05-10T11:22:58;99135.56;;;15.34;100.00
24858;BME280;12935;50.782;6.074;2023-05-10T11:25:26;99130.31;;;14.94;100.00
24858;BME280;12935;50.782;6.074;2023-05-10T11:27:53;99136.31;;;14.41;100.00
24858;BME280;12935;50.782;6.074;2023-05-10T11:30:18;99132.16;;;14.32;100.00
24858;BME280;12935;50.782;6.074;2023-05-10T11:32:44;99131.53;;;14.45;100.00
24858;BME280;12935;50.782;6.074;2023-05-10T11:35:11;99132.00;;;14.39;100.00
24858;BME280;12935;50.782;6.074;2023-05-10T11:37:38;99130.06;;;14.40;100.00
24858;BME280;12935;50.782;6.074;2023-05-10T11:40:08;99133.56;;;14.89;100.00
24858;BME280;12935;50.782;6.074;2023-05-10T11:42:36;99129.78;;;15.28;100.00
24858;BME280;12935;50.782;6.074;2023-05-10T11:45:02;99135.41;;;15.25;100.00
24858;BME280;12935;50.782;6.074;2023-05-10T11:47:27;99134.06;;;15.45;100.00
24858;BME280;12935;50.782;6.074;2023-05-10T11:49:53;99137.66;;;15.42;100.00
24858;BME280;12935;50.782;6.074;2023-05-10T11:52:18;99144.34;;;15.29;100.00
24858;BME280;12935;50.782;6.074;2023-05-10T11:54:54;99136.03;;;15.16;100.00
24858;BME280;12935;50.782;6.074;2023-05-10T11:57:20;99141.47;;;14.87;100.00
24858;BME280;12935;50.782;6.074;2023-05-10T11:59:46;99140.38;;;14.68;100.00
24858;BME280;12935;50.782;6.074;2023-05-10T12:02:15;99145.38;;;14.73;100.00
24858;BME280;12935;50.782;6.074;2023-05-10T12:04:41;99144.75;;;14.50;100.00
24858;BME280;12935;50.782;6.074;2023-05-10T12:07:06;99143.72;;;14.60;100.00
24858;BME280;12935;50.782;6.074;2023-05-10T12:09:32;99145.16;;;14.81;100.00
24858;BME280;12935;50.782;6.074;2023-05-10T12:11:57;99142.59;;;14.90;100.00
24858;BME280;12935;50.782;6.074;2023-05-10T12:14:22;99147.75;;;15.04;100.00
24858;BME280;12935;50.782;6.074;2023-05-10T12:16:48;99146.34;;;15.12;100.00
24858;BME280;12935;50.782;6.074;2023-05-10T12:19:18;99150.75;;;15.09;100.00
24858;BME280;12935;50.782;6.074;2023-05-10T12:21:44;99145.63;;;14.63;100.00
24858;BME280;12935;50.782;6.074;2023-05-10T12:24:09;99155.66;;;14.53;100.00
24858;BME280;12935;50.782;6.074;2023-05-10T12:26:35;99150.78;;;14.61;100.00
24858;BME280;12935;50.782;6.074;2023-05-10T12:29:18;99151.22;;;14.59;100.00
24858;BME280;12935;50.782;6.074;2023-05-10T12:31:58;99142.00;;;14.66;100.00
24858;BME280;12935;50.782;6.074;2023-05-10T12:34:31;99153.59;;;14.90;100.00
24858;BME280;12935;50.782;6.074;2023-05-10T12:36:57;99147.25;;;14.77;100.00
24858;BME280;12935;50.782;6.074;2023-05-10T12:39:23;99153.84;;;14.95;100.00
24858;BME280;12935;50.782;6.074;2023-05-10T12:41:48;99154.97;;;14.82;100.00
24858;BME280;12935;50.782;6.074;2023-05-10T12:44:14;99153.69;;;15.02;100.00
24858;BME280;12935;50.782;6.074;2023-05-10T12:46:39;99158.25;;;15.09;100.00
24858;BME280;12935;50.782;6.074;2023-05-10T12:49:04;99149.28;;;15.21;100.00
24858;BME280;12935;50.782;6.074;2023-05-10T12:51:30;99154.84;;;15.18;100.00
24858;BME280;12935;50.782;6.074;2023-05-10T12:53:56;99149.00;;;15.16;100.00
24858;BME280;12935;50.782;6.074;2023-05-10T12:56:21;99156.91;;;15.14;100.00
24858;BME280;12935;50.782;6.074;2023-05-10T12:58:46;99162.69;;;15.19;100.00
24858;BME280;12935;50.782;6.074;2023-05-10T13:01:13;99176.09;;;15.17;100.00
24858;BME280;12935;50.782;6.074;2023-05-10T13:03:39;99168.28;;;14.99;100.00
24858;BME280;12935;50.782;6.074;2023-05-10T13:06:05;99174.50;;;14.87;100.00
24858;BME280;12935;50.782;6.074;2023-05-10T13:08:31;99175.97;;;14.76;100.00
24858;BME280;12935;50.782;6.074;2023-05-10T13:11:01;99170.13;;;14.73;100.00
24858;BME280;12935;50.782;6.074;2023-05-10T13:13:27;99173.66;;;14.74;100.00
24858;BME280;12935;50.782;6.074;2023-05-10T13:15:52;99171.66;;;14.74;100.00
24858;BME280;12935;50.782;6.074;2023-05-10T13:18:17;99172.09;;;14.73;100.00